sensor_id;sensor_type;location;lat;lon;timestamp;pressure;altitude;pressure_sealevel;temperature;humidity
64687;BME280;51113;53.646;-113.674;2024-02-15T00:00:42;94468.84;;;-9.62;78.12
64687;BME280;51113;53.646;-113.674;2024-02-15T00:03:11;94478.66;;;-9.59;78.44
64687;BME280;51113;53.646;-113.674;2024-02-15T00:05:43;94483.44;;;-9.56;78.28
64687;BME280;51113;53.646;-113.674;2024-02-15T00:08:12;94478.63;;;-9.48;77.97
64687;BME280;51113;53.646;-113.674;2024-02-15T00:10:41;94479.66;;;-9.51;78.50
64687;BME280;51113;53.646;-113.674;2024-02-15T00:13:10;94490.97;;;-9.56;77.97
64687;BME280;51113;53.646;-113.674;2024-02-15T00:15:39;94495.66;;;-9.52;78.74
64687;BME280;51113;53.646;-113.674;2024-02-15T00:18:08;94481.50;;;-9.64;79.24
64687;BME280;51113;53.646;-113.674;2024-02-15T00:20:37;94491.69;;;-9.65;79.23
64687;BME280;51113;53.646;-113.674;2024-02-15T00:23:07;94488.03;;;-9.72;79.22
64687;BME280;51113;53.646;-113.674;2024-02-15T00:25:35;94493.06;;;-9.72;78.92
64687;BME280;51113;53.646;-113.674;2024-02-15T00:28:04;94492.72;;;-9.68;79.51
64687;BME280;51113;53.646;-113.674;2024-02-15T00:30:33;94490.53;;;-9.61;78.69
64687;BME280;51113;53.646;-113.674;2024-02-15T00:33:02;94483.91;;;-9.62;78.67
64687;BME280;51113;53.646;-113.674;2024-02-15T00:35:31;94485.75;;;-9.64;79.21
64687;BME280;51113;53.646;-113.674;2024-02-15T00:38:00;94487.59;;;-9.34;79.42
64687;BME280;51113;53.646;-113.674;2024-02-15T00:40:29;94486.97;;;-9.16;79.96
64687;BME280;51113;53.646;-113.674;2024-02-15T00:42:58;94481.66;;;-8.81;83.26
64687;BME280;51113;53.646;-113.674;2024-02-15T00:45:26;94486.63;;;-8.69;79.61
64687;BME280;51113;53.646;-113.674;2024-02-15T00:47:55;94497.94;;;-9.17;78.82
64687;BME280;51113;53.646;-113.674;2024-02-15T00:50:24;94498.47;;;-9.45;78.42
64687;BME280;51113;53.646;-113.674;2024-02-15T00:52:53;94507.00;;;-9.68;78.93
64687;BME280;51113;53.646;-113.674;2024-02-15T00:55:21;94509.75;;;-9.94;80.09
64687;BME280;51113;53.646;-113.674;2024-02-15T00:57:50;94515.59;;;-10.04;80.47
64687;BME280;51113;53.646;-113.674;2024-02-15T01:00:19;94514.31;;;-9.99;80.56
64687;BME280;51113;53.646;-113.674;2024-02-15T01:02:48;94508.16;;;-9.95;81.28
64687;BME280;51113;53.646;-113.674;2024-02-15T01:05:17;94511.81;;;-9.88;82.33
64687;BME280;51113;53.646;-113.674;2024-02-15T01:07:46;94510.66;;;-9.84;80.53
64687;BME280;51113;53.646;-113.674;2024-02-15T01:10:17;94517.38;;;-9.73;80.32
64687;BME280;51113;53.646;-113.674;2024-02-15T01:12:45;94517.94;;;-9.69;80.32
64687;BME280;51113;53.646;-113.674;2024-02-15T01:15:14;94513.50;;;-9.66;79.32
64687;BME280;51113;53.646;-113.674;2024-02-15T01:17:46;94519.53;;;-9.68;79.53
64687;BME280;51113;53.646;-113.674;2024-02-15T01:20:15;94501.09;;;-9.90;79.52
64687;BME280;51113;53.646;-113.674;2024-02-15T01:22:43;94520.13;;;-9.87;81.15
64687;BME280;51113;53.646;-113.674;2024-02-15T01:25:15;94513.06;;;-9.93;81.29
64687;BME280;51113;53.646;-113.674;2024-02-15T01:27:45;94526.97;;;-9.67;80.09
64687;BME280;51113;53.646;-113.674;2024-02-15T01:30:13;94517.25;;;-9.60;80.31
64687;BME280;51113;53.646;-113.674;2024-02-15T01:32:42;94511.53;;;-9.51;79.56
64687;BME280;51113;53.646;-113.674;2024-02-15T01:35:11;94518.44;;;-9.32;77.05
64687;BME280;51113;53.646;-113.674;2024-02-15T01:37:40;94515.03;;;-9.42;78.87
64687;BME280;51113;53.646;-113.674;2024-02-15T01:40:09;94523.13;;;-9.39;78.10
64687;BME280;51113;53.646;-113.674;2024-02-15T01:42:40;94536.94;;;-9.88;80.03
64687;BME280;51113;53.646;-113.674;2024-02-15T01:45:09;94540.47;;;-10.13;81.12
64687;BME280;51113;53.646;-113.674;2024-02-15T01:47:40;94543.19;;;-10.16;81.30
64687;BME280;51113;53.646;-113.674;2024-02-15T01:50:11;94535.56;;;-10.14;82.44
64687;BME280;51113;53.646;-113.674;2024-02-15T01:52:41;94531.09;;;-10.11;81.11
64687;BME280;51113;53.646;-113.674;2024-02-15T01:55:12;94537.16;;;-10.02;80.84
64687;BME280;51113;53.646;-113.674;2024-02-15T01:57:46;94532.38;;;-10.05;81.81
64687;BME280;51113;53.646;-113.674;2024-02-15T02:00:18;94539.56;;;-10.00;81.60
64687;BME280;51113;53.646;-113.674;2024-02-15T02:02:48;94527.22;;;-10.03;81.68
64687;BME280;51113;53.646;-113.674;2024-02-15T02:05:17;94546.06;;;-9.98;81.68
64687;BME280;51113;53.646;-113.674;2024-02-15T02:07:45;94546.75;;;-9.96;80.55
64687;BME280;51113;53.646;-113.674;2024-02-15T02:10:15;94545.03;;;-9.84;80.46
64687;BME280;51113;53.646;-113.674;2024-02-15T02:12:43;94547.19;;;-9.80;80.61
64687;BME280;51113;53.646;-113.674;2024-02-15T02:15:12;94551.31;;;-9.79;79.69
64687;BME280;51113;53.646;-113.674;2024-02-15T02:17:41;94552.22;;;-9.80;80.25
64687;BME280;51113;53.646;-113.674;2024-02-15T02:20:10;94552.91;;;-9.89;80.27
64687;BME280;51113;53.646;-113.674;2024-02-15T02:22:47;94551.31;;;-9.90;80.83
64687;BME280;51113;53.646;-113.674;2024-02-15T02:25:16;94562.25;;;-9.91;81.29
64687;BME280;51113;53.646;-113.674;2024-02-15T02:27:47;94551.41;;;-10.02;81.16
64687;BME280;51113;53.646;-113.674;2024-02-15T02:30:16;94559.06;;;-9.93;80.72
64687;BME280;51113;53.646;-113.674;2024-02-15T02:32:50;94562.25;;;-9.91;80.70
64687;BME280;51113;53.646;-113.674;2024-02-15T02:35:19;94558.63;;;-9.87;79.94
64687;BME280;51113;53.646;-113.674;2024-02-15T02:37:48;94558.16;;;-9.92;79.94
64687;BME280;51113;53.646;-113.674;2024-02-15T02:40:17;94564.78;;;-9.80;80.47
64687;BME280;51113;53.646;-113.674;2024-02-15T02:42:56;94562.38;;;-9.70;80.14
64687;BME280;51113;53.646;-113.674;2024-02-15T02:45:27;94565.91;;;-9.72;78.09
64687;BME280;51113;53.646;-113.674;2024-02-15T02:47:56;94559.19;;;-9.72;79.35
64687;BME280;51113;53.646;-113.674;2024-02-15T02:50:25;94562.38;;;-9.70;79.73
64687;BME280;51113;53.646;-113.674;2024-02-15T02:52:54;94565.69;;;-9.69;80.25
64687;BME280;51113;53.646;-113.674;2024-02-15T02:55:22;94543.06;;;-9.69;80.24
64687;BME280;51113;53.646;-113.674;2024-02-15T02:57:51;94555.16;;;-9.63;79.61
64687;BME280;51113;53.646;-113.674;2024-02-15T03:00:21;94558.13;;;-9.58;79.54
64687;BME280;51113;53.646;-113.674;2024-02-15T03:02:50;94554.94;;;-9.60;79.62
64687;BME280;51113;53.646;-113.674;2024-02-15T03:05:19;94551.72;;;-9.51;79.34
64687;BME280;51113;53.646;-113.674;2024-02-15T03:07:49;94550.25;;;-9.54;78.43
64687;BME280;51113;53.646;-113.674;2024-02-15T03:10:19;94552.97;;;-9.46;77.37
64687;BME280;51113;53.646;-113.674;2024-02-15T03:12:48;94560.84;;;-9.39;78.19
64687;BME280;51113;53.646;-113.674;2024-02-15T03:15:16;94568.47;;;-9.29;75.39
64687;BME280;51113;53.646;-113.674;2024-02-15T03:17:47;94569.38;;;-9.19;74.61
64687;BME280;51113;53.646;-113.674;2024-02-15T03:20:16;94535.16;;;-9.54;77.73
64687;BME280;51113;53.646;-113.674;2024-02-15T03:22:53;94570.66;;;-9.36;75.40
64687;BME280;51113;53.646;-113.674;2024-02-15T03:25:22;94569.31;;;-9.40;75.73
64687;BME280;51113;53.646;-113.674;2024-02-15T03:27:55;94573.06;;;-9.34;75.89
64687;BME280;51113;53.646;-113.674;2024-02-15T03:30:25;94569.31;;;-9.40;76.66
64687;BME280;51113;53.646;-113.674;2024-02-15T03:32:54;94574.09;;;-9.37;77.41
64687;BME280;51113;53.646;-113.674;2024-02-15T03:35:25;94557.09;;;-9.44;77.30
64687;BME280;51113;53.646;-113.674;2024-02-15T03:37:57;94557.66;;;-9.41;76.88
64687;BME280;51113;53.646;-113.674;2024-02-15T03:40:26;94568.84;;;-9.34;75.31
64687;BME280;51113;53.646;-113.674;2024-02-15T03:42:56;94568.28;;;-9.37;75.00
64687;BME280;51113;53.646;-113.674;2024-02-15T03:45:24;94566.09;;;-9.42;75.45
64687;BME280;51113;53.646;-113.674;2024-02-15T03:47:54;94566.66;;;-9.38;75.06
64687;BME280;51113;53.646;-113.674;2024-02-15T03:50:26;94567.94;;;-9.44;75.97
64687;BME280;51113;53.646;-113.674;2024-02-15T03:52:56;94563.16;;;-9.47;75.00
64687;BME280;51113;53.646;-113.674;2024-02-15T03:55:28;94557.66;;;-9.41;74.70
64687;BME280;51113;53.646;-113.674;2024-02-15T03:57:56;94540.53;;;-9.58;75.86
64687;BME280;51113;53.646;-113.674;2024-02-15T04:00:26;94561.31;;;-9.45;75.22
64687;BME280;51113;53.646;-113.674;2024-02-15T04:02:54;94560.50;;;-9.46;74.23
64687;BME280;51113;53.646;-113.674;2024-02-15T04:05:24;94557.88;;;-9.44;74.65
64687;BME280;51113;53.646;-113.674;2024-02-15T04:07:53;94548.28;;;-9.39;74.79
64687;BME280;51113;53.646;-113.674;2024-02-15T04:10:22;94561.06;;;-9.42;74.54
64687;BME280;51113;53.646;-113.674;2024-02-15T04:12:51;94564.28;;;-9.40;74.08
64687;BME280;51113;53.646;-113.674;2024-02-15T04:15:19;94572.63;;;-9.39;74.87
64687;BME280;51113;53.646;-113.674;2024-02-15T04:17:48;94564.50;;;-9.43;74.94
64687;BME280;51113;53.646;-113.674;2024-02-15T04:20:24;94576.81;;;-9.29;72.16
64687;BME280;51113;53.646;-113.674;2024-02-15T04:22:53;94571.34;;;-9.34;72.96
64687;BME280;51113;53.646;-113.674;2024-02-15T04:25:22;94580.00;;;-9.27;72.77
64687;BME280;51113;53.646;-113.674;2024-02-15T04:27:57;94581.28;;;-9.32;74.87
64687;BME280;51113;53.646;-113.674;2024-02-15T04:30:27;94588.94;;;-9.34;74.44
64687;BME280;51113;53.646;-113.674;2024-02-15T04:32:56;94582.56;;;-9.38;74.67
64687;BME280;51113;53.646;-113.674;2024-02-15T04:35:25;94582.56;;;-9.38;73.04
64687;BME280;51113;53.646;-113.674;2024-02-15T04:37:56;94584.16;;;-9.37;74.05
64687;BME280;51113;53.646;-113.674;2024-02-15T04:40:24;94576.34;;;-9.23;73.95
64687;BME280;51113;53.646;-113.674;2024-02-15T04:42:53;94574.50;;;-9.21;72.49
64687;BME280;51113;53.646;-113.674;2024-02-15T04:45:22;94581.81;;;-9.18;72.47
64687;BME280;51113;53.646;-113.674;2024-02-15T04:47:51;94584.13;;;-9.26;73.70
64687;BME280;51113;53.646;-113.674;2024-02-15T04:50:21;94577.59;;;-9.17;73.07
64687;BME280;51113;53.646;-113.674;2024-02-15T04:52:50;94582.06;;;-9.21;71.79
64687;BME280;51113;53.646;-113.674;2024-02-15T04:55:19;94584.34;;;-9.18;72.02
64687;BME280;51113;53.646;-113.674;2024-02-15T04:57:48;94583.31;;;-9.15;73.07
64687;BME280;51113;53.646;-113.674;2024-02-15T05:00:17;94586.63;;;-9.26;74.31
64687;BME280;51113;53.646;-113.674;2024-02-15T05:02:49;94583.41;;;-9.17;72.43
64687;BME280;51113;53.646;-113.674;2024-02-15T05:05:18;94588.00;;;-9.22;73.42
64687;BME280;51113;53.646;-113.674;2024-02-15T05:07:46;94594.16;;;-9.15;71.97
64687;BME280;51113;53.646;-113.674;2024-02-15T05:10:17;94594.88;;;-9.24;73.36
64687;BME280;51113;53.646;-113.674;2024-02-15T05:12:45;94597.72;;;-9.17;72.42
64687;BME280;51113;53.646;-113.674;2024-02-15T05:15:17;94587.19;;;-9.11;71.94
64687;BME280;51113;53.646;-113.674;2024-02-15T05:17:47;94584.22;;;-9.16;71.75
64687;BME280;51113;53.646;-113.674;2024-02-15T05:20:16;94591.84;;;-9.06;71.53
64687;BME280;51113;53.646;-113.674;2024-02-15T05:22:44;94595.63;;;-9.12;70.36
64687;BME280;51113;53.646;-113.674;2024-02-15T05:25:18;94594.72;;;-9.11;70.52
64687;BME280;51113;53.646;-113.674;2024-02-15T05:27:53;94593.47;;;-9.17;71.13
64687;BME280;51113;53.646;-113.674;2024-02-15T05:30:25;94588.34;;;-9.15;70.56
64687;BME280;51113;53.646;-113.674;2024-02-15T05:32:53;94591.09;;;-9.18;71.45
64687;BME280;51113;53.646;-113.674;2024-02-15T05:35:22;94592.22;;;-9.22;71.07
64687;BME280;51113;53.646;-113.674;2024-02-15T05:37:52;94591.88;;;-9.18;71.86
64687;BME280;51113;53.646;-113.674;2024-02-15T05:40:21;94590.63;;;-9.12;71.06
64687;BME280;51113;53.646;-113.674;2024-02-15T05:42:55;94597.81;;;-9.19;71.10
64687;BME280;51113;53.646;-113.674;2024-02-15T05:47:53;94598.97;;;-9.23;73.01
64687;BME280;51113;53.646;-113.674;2024-02-15T05:50:23;94603.13;;;-9.44;73.76
64687;BME280;51113;53.646;-113.674;2024-02-15T05:52:51;94603.13;;;-9.66;75.40
64687;BME280;51113;53.646;-113.674;2024-02-15T05:55:22;94594.00;;;-9.67;75.27
64687;BME280;51113;53.646;-113.674;2024-02-15T05:57:51;94592.75;;;-9.73;75.68
64687;BME280;51113;53.646;-113.674;2024-02-15T06:00:19;94596.28;;;-9.64;75.01
64687;BME280;51113;53.646;-113.674;2024-02-15T06:02:50;94588.88;;;-9.66;76.46
64687;BME280;51113;53.646;-113.674;2024-02-15T06:05:20;94586.47;;;-9.67;75.02
64687;BME280;51113;53.646;-113.674;2024-02-15T06:07:48;94584.50;;;-9.53;74.14
64687;BME280;51113;53.646;-113.674;2024-02-15T06:10:17;94586.91;;;-9.51;74.46
64687;BME280;51113;53.646;-113.674;2024-02-15T06:12:46;94592.28;;;-9.67;76.10
64687;BME280;51113;53.646;-113.674;2024-02-15T06:15:15;94584.53;;;-9.75;77.31
64687;BME280;51113;53.646;-113.674;2024-02-15T06:17:45;94582.25;;;-9.89;76.89
64687;BME280;51113;53.646;-113.674;2024-02-15T06:20:15;94590.34;;;-9.74;76.76
64687;BME280;51113;53.646;-113.674;2024-02-15T06:22:48;94574.59;;;-9.65;76.27
64687;BME280;51113;53.646;-113.674;2024-02-15T06:25:17;94592.75;;;-9.62;78.08
64687;BME280;51113;53.646;-113.674;2024-02-15T06:27:49;94588.88;;;-9.77;76.91
64687;BME280;51113;53.646;-113.674;2024-02-15T06:30:26;94590.91;;;-9.82;77.84
64687;BME280;51113;53.646;-113.674;2024-02-15T06:33:13;94594.13;;;-9.91;78.23
64687;BME280;51113;53.646;-113.674;2024-02-15T06:36:08;94602.34;;;-9.89;78.47
64687;BME280;51113;53.646;-113.674;2024-02-15T06:38:55;94593.53;;;-9.95;77.72
64687;BME280;51113;53.646;-113.674;2024-02-15T06:41:42;94595.16;;;-9.83;77.11
64687;BME280;51113;53.646;-113.674;2024-02-15T06:44:11;94596.28;;;-9.87;77.24
64687;BME280;51113;53.646;-113.674;2024-02-15T06:46:39;94592.50;;;-10.03;77.85
64687;BME280;51113;53.646;-113.674;2024-02-15T06:49:09;94600.38;;;-9.97;79.29
64687;BME280;51113;53.646;-113.674;2024-02-15T06:51:38;94604.25;;;-10.04;79.33
64687;BME280;51113;53.646;-113.674;2024-02-15T06:54:07;94609.97;;;-10.02;79.13
64687;BME280;51113;53.646;-113.674;2024-02-15T06:56:38;94610.88;;;-10.03;78.57
64687;BME280;51113;53.646;-113.674;2024-02-15T06:59:08;94606.66;;;-10.02;79.70
64687;BME280;51113;53.646;-113.674;2024-02-15T07:01:38;94599.00;;;-10.12;80.28
64687;BME280;51113;53.646;-113.674;2024-02-15T07:04:07;94611.56;;;-10.12;80.16
64687;BME280;51113;53.646;-113.674;2024-02-15T07:06:38;94607.22;;;-10.10;81.37
64687;BME280;51113;53.646;-113.674;2024-02-15T07:09:07;94609.72;;;-10.10;80.67
64687;BME280;51113;53.646;-113.674;2024-02-15T07:11:36;94614.19;;;-10.02;81.17
64687;BME280;51113;53.646;-113.674;2024-02-15T07:14:04;94614.78;;;-9.99;81.01
64687;BME280;51113;53.646;-113.674;2024-02-15T07:16:35;94604.03;;;-10.12;80.81
64687;BME280;51113;53.646;-113.674;2024-02-15T07:19:04;94611.00;;;-10.04;81.28
64687;BME280;51113;53.646;-113.674;2024-02-15T07:21:33;94607.69;;;-9.94;80.50
64687;BME280;51113;53.646;-113.674;2024-02-15T07:24:02;94604.84;;;-9.89;81.00
64687;BME280;51113;53.646;-113.674;2024-02-15T07:26:33;94599.69;;;-9.99;81.48
64687;BME280;51113;53.646;-113.674;2024-02-15T07:29:04;94606.09;;;-10.06;80.71
64687;BME280;51113;53.646;-113.674;2024-02-15T07:31:36;94599.69;;;-9.99;79.55
64687;BME280;51113;53.646;-113.674;2024-02-15T07:34:04;94610.31;;;-10.06;80.63
64687;BME280;51113;53.646;-113.674;2024-02-15T07:36:33;94608.59;;;-9.95;81.06
64687;BME280;51113;53.646;-113.674;2024-02-15T07:39:03;94606.91;;;-9.94;80.96
64687;BME280;51113;53.646;-113.674;2024-02-15T07:41:32;94618.88;;;-9.98;80.05
64687;BME280;51113;53.646;-113.674;2024-02-15T07:44:01;94606.22;;;-9.96;80.76
64687;BME280;51113;53.646;-113.674;2024-02-15T07:46:30;94620.03;;;-9.91;80.04
64687;BME280;51113;53.646;-113.674;2024-02-15T07:48:59;94605.41;;;-9.74;78.06
64687;BME280;51113;53.646;-113.674;2024-02-15T07:51:28;94609.53;;;-9.73;77.21
64687;BME280;51113;53.646;-113.674;2024-02-15T07:53:57;94601.19;;;-9.63;77.05
64687;BME280;51113;53.646;-113.674;2024-02-15T07:56:25;94606.09;;;-9.84;78.55
64687;BME280;51113;53.646;-113.674;2024-02-15T07:58:54;94605.66;;;-9.77;78.11
64687;BME280;51113;53.646;-113.674;2024-02-15T08:01:23;94598.22;;;-9.68;77.06
64687;BME280;51113;53.646;-113.674;2024-02-15T08:03:52;94603.81;;;-9.75;76.90
64687;BME280;51113;53.646;-113.674;2024-02-15T08:06:22;94612.28;;;-9.76;77.36
64687;BME280;51113;53.646;-113.674;2024-02-15T08:08:56;94617.63;;;-9.92;79.11
64687;BME280;51113;53.646;-113.674;2024-02-15T08:11:25;94610.44;;;-9.86;78.82
64687;BME280;51113;53.646;-113.674;2024-02-15T08:13:54;94617.75;;;-9.83;79.09
64687;BME280;51113;53.646;-113.674;2024-02-15T08:16:26;94609.31;;;-9.82;80.25
64687;BME280;51113;53.646;-113.674;2024-02-15T08:18:58;94613.88;;;-9.87;81.42
64687;BME280;51113;53.646;-113.674;2024-02-15T08:21:30;94614.31;;;-10.04;81.34
64687;BME280;51113;53.646;-113.674;2024-02-15T08:24:02;94621.84;;;-9.93;80.07
64687;BME280;51113;53.646;-113.674;2024-02-15T08:26:36;94618.44;;;-9.92;80.13
64687;BME280;51113;53.646;-113.674;2024-02-15T08:29:09;94613.19;;;-9.89;79.72
64687;BME280;51113;53.646;-113.674;2024-02-15T08:31:37;94602.22;;;-9.88;79.63
64687;BME280;51113;53.646;-113.674;2024-02-15T08:34:06;94605.06;;;-9.81;80.28
64687;BME280;51113;53.646;-113.674;2024-02-15T08:36:38;94603.13;;;-9.89;80.46
64687;BME280;51113;53.646;-113.674;2024-02-15T08:39:07;94606.78;;;-9.82;80.21
64687;BME280;51113;53.646;-113.674;2024-02-15T08:41:40;94604.63;;;-9.86;81.27
64687;BME280;51113;53.646;-113.674;2024-02-15T08:44:08;94592.06;;;-9.86;80.42
64687;BME280;51113;53.646;-113.674;2024-02-15T08:46:39;94601.53;;;-9.90;80.14
64687;BME280;51113;53.646;-113.674;2024-02-15T08:49:08;94600.50;;;-9.87;80.71
64687;BME280;51113;53.646;-113.674;2024-02-15T08:51:36;94593.53;;;-9.84;80.77
64687;BME280;51113;53.646;-113.674;2024-02-15T08:54:05;94595.81;;;-9.81;80.28
64687;BME280;51113;53.646;-113.674;2024-02-15T08:56:35;94599.25;;;-9.82;80.36
64687;BME280;51113;53.646;-113.674;2024-02-15T08:59:04;94607.13;;;-9.86;80.74
64687;BME280;51113;53.646;-113.674;2024-02-15T09:01:33;94604.50;;;-9.85;80.79
64687;BME280;51113;53.646;-113.674;2024-02-15T09:04:02;94604.28;;;-9.82;81.91
64687;BME280;51113;53.646;-113.674;2024-02-15T09:06:31;94607.47;;;-9.80;81.28
64687;BME280;51113;53.646;-113.674;2024-02-15T09:08:59;94610.22;;;-9.71;82.26
64687;BME280;51113;53.646;-113.674;2024-02-15T09:11:31;94594.91;;;-9.68;83.02
64687;BME280;51113;53.646;-113.674;2024-02-15T09:14:00;94606.09;;;-9.61;81.78
64687;BME280;51113;53.646;-113.674;2024-02-15T09:16:29;94607.47;;;-9.68;81.73
64687;BME280;51113;53.646;-113.674;2024-02-15T09:18:59;94611.69;;;-9.80;82.14
64687;BME280;51113;53.646;-113.674;2024-02-15T09:21:30;94604.97;;;-9.91;83.03
64687;BME280;51113;53.646;-113.674;2024-02-15T09:23:59;94605.53;;;-9.98;83.10
64687;BME280;51113;53.646;-113.674;2024-02-15T09:26:28;94609.75;;;-10.21;84.22
64687;BME280;51113;53.646;-113.674;2024-02-15T09:28:56;94619.53;;;-10.29;84.68
64687;BME280;51113;53.646;-113.674;2024-02-15T09:31:25;94618.53;;;-10.27;85.56
64687;BME280;51113;53.646;-113.674;2024-02-15T09:33:54;94615.44;;;-10.30;84.99
64687;BME280;51113;53.646;-113.674;2024-02-15T09:36:22;94613.81;;;-10.42;85.63
64687;BME280;51113;53.646;-113.674;2024-02-15T09:38:51;94613.91;;;-10.44;85.11
64687;BME280;51113;53.646;-113.674;2024-02-15T09:41:20;94625.28;;;-10.51;85.49
64687;BME280;51113;53.646;-113.674;2024-02-15T09:43:49;94631.91;;;-10.50;86.19
64687;BME280;51113;53.646;-113.674;2024-02-15T09:46:17;94629.78;;;-10.43;85.81
64687;BME280;51113;53.646;-113.674;2024-02-15T09:48:50;94632.75;;;-10.38;85.80
64687;BME280;51113;53.646;-113.674;2024-02-15T09:51:20;94634.13;;;-10.34;84.87
64687;BME280;51113;53.646;-113.674;2024-02-15T09:53:49;94628.16;;;-10.45;84.94
64687;BME280;51113;53.646;-113.674;2024-02-15T09:56:18;94623.25;;;-10.46;85.81
64687;BME280;51113;53.646;-113.674;2024-02-15T09:58:51;94635.94;;;-10.36;84.85
64687;BME280;51113;53.646;-113.674;2024-02-15T10:01:23;94647.16;;;-10.29;84.75
64687;BME280;51113;53.646;-113.674;2024-02-15T10:03:53;94641.09;;;-10.27;85.48
64687;BME280;51113;53.646;-113.674;2024-02-15T10:06:22;94643.84;;;-10.19;84.98
64687;BME280;51113;53.646;-113.674;2024-02-15T10:08:51;94644.63;;;-10.29;85.51
64687;BME280;51113;53.646;-113.674;2024-02-15T10:11:19;94645.09;;;-10.24;85.09
64687;BME280;51113;53.646;-113.674;2024-02-15T10:13:48;94646.91;;;-10.15;84.09
64687;BME280;51113;53.646;-113.674;2024-02-15T10:16:18;94647.16;;;-10.07;84.05
64687;BME280;51113;53.646;-113.674;2024-02-15T10:18:47;94645.78;;;-10.22;85.17
64687;BME280;51113;53.646;-113.674;2024-02-15T10:21:28;94643.72;;;-10.17;85.34
64687;BME280;51113;53.646;-113.674;2024-02-15T10:24:05;94639.28;;;-10.14;85.35
64687;BME280;51113;53.646;-113.674;2024-02-15T10:26:35;94637.91;;;-10.18;84.29
64687;BME280;51113;53.646;-113.674;2024-02-15T10:29:21;94632.56;;;-10.02;85.06
64687;BME280;51113;53.646;-113.674;2024-02-15T10:31:58;94632.00;;;-10.05;84.54
64687;BME280;51113;53.646;-113.674;2024-02-15T10:34:30;94630.19;;;-9.92;84.17
64687;BME280;51113;53.646;-113.674;2024-02-15T10:37:13;94634.88;;;-9.88;83.16
64687;BME280;51113;53.646;-113.674;2024-02-15T10:39:42;94630.53;;;-9.74;84.14
64687;BME280;51113;53.646;-113.674;2024-02-15T10:42:11;94625.75;;;-9.77;84.17
64687;BME280;51113;53.646;-113.674;2024-02-15T10:44:42;94629.59;;;-10.07;85.17
64687;BME280;51113;53.646;-113.674;2024-02-15T10:47:11;94627.75;;;-10.27;86.11
64687;BME280;51113;53.646;-113.674;2024-02-15T10:49:40;94630.72;;;-10.22;86.24
64687;BME280;51113;53.646;-113.674;2024-02-15T10:52:13;94642.56;;;-10.35;85.96
64687;BME280;51113;53.646;-113.674;2024-02-15T10:54:47;94642.47;;;-10.34;86.21
64687;BME280;51113;53.646;-113.674;2024-02-15T10:57:22;94642.47;;;-10.34;86.73
64687;BME280;51113;53.646;-113.674;2024-02-15T10:59:58;94636.97;;;-10.39;86.76
64687;BME280;51113;53.646;-113.674;2024-02-15T11:02:30;94645.97;;;-10.36;87.40
64687;BME280;51113;53.646;-113.674;2024-02-15T11:05:03;94645.97;;;-10.36;87.62
64687;BME280;51113;53.646;-113.674;2024-02-15T11:07:38;94640.28;;;-10.38;87.38
64687;BME280;51113;53.646;-113.674;2024-02-15T11:10:08;94644.38;;;-10.37;87.26
64687;BME280;51113;53.646;-113.674;2024-02-15T11:12:38;94649.41;;;-10.37;87.36
64687;BME280;51113;53.646;-113.674;2024-02-15T11:15:11;94650.19;;;-10.37;87.96
64687;BME280;51113;53.646;-113.674;2024-02-15T11:17:46;94644.38;;;-10.37;87.67
64687;BME280;51113;53.646;-113.674;2024-02-15T11:23:03;94651.47;;;-10.31;87.76
64687;BME280;51113;53.646;-113.674;2024-02-15T11:30:50;94673.84;;;-10.17;86.50
64687;BME280;51113;53.646;-113.674;2024-02-15T11:33:28;94671.66;;;-10.33;87.20
64687;BME280;51113;53.646;-113.674;2024-02-15T11:38:37;94662.22;;;-10.18;87.57
64687;BME280;51113;53.646;-113.674;2024-02-15T11:41:10;94666.22;;;-10.16;86.82
64687;BME280;51113;53.646;-113.674;2024-02-15T11:46:25;94666.97;;;-10.37;89.00
64687;BME280;51113;53.646;-113.674;2024-02-15T11:48:55;94666.22;;;-10.16;88.23
64687;BME280;51113;53.646;-113.674;2024-02-15T11:51:29;94657.09;;;-10.05;87.59
64687;BME280;51113;53.646;-113.674;2024-02-15T11:54:03;94660.88;;;-10.00;87.34
64687;BME280;51113;53.646;-113.674;2024-02-15T11:59:19;94669.44;;;-10.02;87.91
64687;BME280;51113;53.646;-113.674;2024-02-15T12:01:58;94674.47;;;-9.91;87.84
64687;BME280;51113;53.646;-113.674;2024-02-15T12:04:46;94671.81;;;-10.12;88.80
64687;BME280;51113;53.646;-113.674;2024-02-15T12:07:33;94673.47;;;-9.89;87.79
64687;BME280;51113;53.646;-113.674;2024-02-15T12:10:20;94664.78;;;-9.85;87.87
64687;BME280;51113;53.646;-113.674;2024-02-15T12:13:07;94675.25;;;-10.02;87.60
64687;BME280;51113;53.646;-113.674;2024-02-15T12:16:01;94647.72;;;-10.15;88.75
64687;BME280;51113;53.646;-113.674;2024-02-15T12:18:48;94679.94;;;-9.97;88.65
64687;BME280;51113;53.646;-113.674;2024-02-15T12:21:26;94680.53;;;-9.94;88.71
64687;BME280;51113;53.646;-113.674;2024-02-15T12:23:56;94680.97;;;-10.00;88.28
64687;BME280;51113;53.646;-113.674;2024-02-15T12:26:25;94675.16;;;-9.89;89.33
64687;BME280;51113;53.646;-113.674;2024-02-15T12:28:55;94687.38;;;-9.85;88.90
64687;BME280;51113;53.646;-113.674;2024-02-15T12:31:25;94671.75;;;-9.77;88.44
64687;BME280;51113;53.646;-113.674;2024-02-15T12:34:05;94669.13;;;-9.75;88.50
64687;BME280;51113;53.646;-113.674;2024-02-15T12:36:37;94669.00;;;-9.85;88.81
64687;BME280;51113;53.646;-113.674;2024-02-15T12:39:06;94673.47;;;-9.89;89.11
64687;BME280;51113;53.646;-113.674;2024-02-15T12:41:49;94663.09;;;-9.73;88.70
64687;BME280;51113;53.646;-113.674;2024-02-15T12:44:19;94663.31;;;-9.65;87.85
64687;BME280;51113;53.646;-113.674;2024-02-15T12:46:55;94652.34;;;-9.64;88.01
64687;BME280;51113;53.646;-113.674;2024-02-15T12:51:54;94670.06;;;-9.65;87.23
64687;BME280;51113;53.646;-113.674;2024-02-15T12:54:42;94676.00;;;-9.66;88.13
64687;BME280;51113;53.646;-113.674;2024-02-15T12:57:13;94683.84;;;-9.82;88.18
64687;BME280;51113;53.646;-113.674;2024-02-15T12:59:44;94682.47;;;-9.86;88.58
64687;BME280;51113;53.646;-113.674;2024-02-15T13:02:13;94681.00;;;-9.89;88.10
64687;BME280;51113;53.646;-113.674;2024-02-15T13:04:42;94682.59;;;-9.76;88.50
64687;BME280;51113;53.646;-113.674;2024-02-15T13:07:11;94675.19;;;-9.78;88.36